Terminal Aerodrome Forecast
Issued by NWS

Home | Current Version | Previous Version | Text Only | Print | Product List | Glossary Off
Versions: 1 2 3 4 5 6 7 8 9 10 11 12 13 14 15 16 17 18 19 20 21 22 23 24 25 26 27 28 29 30 31 32 33 34 35 36 37 38 39 40 41 42 43 44 45 46 47 48 49 50

000
FTUS43 KLOT 251100
TAFGYY
TAF
KGYY 251139Z 2512/2612 26011G16KT P6SM VCSH BKN018 OVC040
     FM251400 26010KT P6SM BKN025 BKN040
     FM251800 26009KT P6SM SCT025 BKN040
     FM260000 24006KT P6SM SCT040 SCT250
     FM260600 20004KT P6SM BKN250=

USA.gov is the U.S. government's official web portal to all federal, state and local government web resources and services.